sensor_id;sensor_type;location;lat;lon;timestamp;P1;durP1;ratioP1;P2;durP2;ratioP2
32445;SDS011;18899;50.748;7.102;2022-10-16T00:00:57;2.38;;;1.10;;
32445;SDS011;18899;50.748;7.102;2022-10-16T00:03:22;2.08;;;0.93;;
32445;SDS011;18899;50.748;7.102;2022-10-16T00:05:48;1.80;;;1.10;;
32445;SDS011;18899;50.748;7.102;2022-10-16T00:08:13;1.58;;;1.02;;
32445;SDS011;18899;50.748;7.102;2022-10-16T00:10:39;5.80;;;1.17;;
32445;SDS011;18899;50.748;7.102;2022-10-16T00:13:05;4.28;;;0.80;;
32445;SDS011;18899;50.748;7.102;2022-10-16T00:15:38;1.25;;;0.77;;
32445;SDS011;18899;50.748;7.102;2022-10-16T00:18:04;3.90;;;0.90;;
32445;SDS011;18899;50.748;7.102;2022-10-16T00:20:30;1.70;;;0.70;;
32445;SDS011;18899;50.748;7.102;2022-10-16T00:22:58;1.65;;;0.77;;
32445;SDS011;18899;50.748;7.102;2022-10-16T00:25:24;1.05;;;0.80;;
32445;SDS011;18899;50.748;7.102;2022-10-16T00:27:49;2.50;;;0.95;;
32445;SDS011;18899;50.748;7.102;2022-10-16T00:30:15;1.65;;;0.90;;
32445;SDS011;18899;50.748;7.102;2022-10-16T00:32:40;4.47;;;1.25;;
32445;SDS011;18899;50.748;7.102;2022-10-16T00:35:06;3.88;;;1.13;;
32445;SDS011;18899;50.748;7.102;2022-10-16T00:37:31;1.25;;;0.80;;
32445;SDS011;18899;50.748;7.102;2022-10-16T00:39:57;2.47;;;1.25;;
32445;SDS011;18899;50.748;7.102;2022-10-16T00:42:22;1.90;;;0.70;;
32445;SDS011;18899;50.748;7.102;2022-10-16T00:44:55;1.52;;;0.85;;
32445;SDS011;18899;50.748;7.102;2022-10-16T00:47:24;1.40;;;0.73;;
32445;SDS011;18899;50.748;7.102;2022-10-16T00:50:02;1.13;;;0.80;;
32445;SDS011;18899;50.748;7.102;2022-10-16T00:52:33;2.13;;;0.90;;
32445;SDS011;18899;50.748;7.102;2022-10-16T00:54:59;4.38;;;1.02;;
32445;SDS011;18899;50.748;7.102;2022-10-16T00:57:27;1.23;;;0.90;;
32445;SDS011;18899;50.748;7.102;2022-10-16T00:59:53;1.42;;;1.02;;
32445;SDS011;18899;50.748;7.102;2022-10-16T01:02:19;2.78;;;1.20;;
32445;SDS011;18899;50.748;7.102;2022-10-16T01:04:49;1.92;;;1.20;;
32445;SDS011;18899;50.748;7.102;2022-10-16T01:15:48;5.93;;;1.23;;
32445;SDS011;18899;50.748;7.102;2022-10-16T01:19:05;2.05;;;1.33;;
32445;SDS011;18899;50.748;7.102;2022-10-16T01:21:35;6.13;;;1.40;;
32445;SDS011;18899;50.748;7.102;2022-10-16T01:24:15;2.97;;;1.50;;
32445;SDS011;18899;50.748;7.102;2022-10-16T01:29:33;2.88;;;1.35;;
32445;SDS011;18899;50.748;7.102;2022-10-16T01:32:11;3.58;;;1.45;;
32445;SDS011;18899;50.748;7.102;2022-10-16T01:34:47;4.70;;;1.60;;
32445;SDS011;18899;50.748;7.102;2022-10-16T01:37:28;2.15;;;1.35;;
32445;SDS011;18899;50.748;7.102;2022-10-16T01:40:02;2.92;;;1.40;;
32445;SDS011;18899;50.748;7.102;2022-10-16T01:42:34;1.70;;;1.30;;
32445;SDS011;18899;50.748;7.102;2022-10-16T01:45:02;4.72;;;1.95;;
32445;SDS011;18899;50.748;7.102;2022-10-16T01:47:31;2.47;;;1.73;;
32445;SDS011;18899;50.748;7.102;2022-10-16T01:49:57;2.63;;;1.67;;
32445;SDS011;18899;50.748;7.102;2022-10-16T01:52:25;2.58;;;1.20;;
32445;SDS011;18899;50.748;7.102;2022-10-16T01:54:54;4.60;;;1.63;;
32445;SDS011;18899;50.748;7.102;2022-10-16T01:57:21;3.63;;;1.77;;
32445;SDS011;18899;50.748;7.102;2022-10-16T01:59:51;2.70;;;1.58;;
32445;SDS011;18899;50.748;7.102;2022-10-16T02:02:21;8.45;;;2.22;;
32445;SDS011;18899;50.748;7.102;2022-10-16T02:04:53;2.30;;;1.50;;
32445;SDS011;18899;50.748;7.102;2022-10-16T02:07:36;4.10;;;2.70;;
32445;SDS011;18899;50.748;7.102;2022-10-16T02:10:01;2.78;;;1.55;;
32445;SDS011;18899;50.748;7.102;2022-10-16T02:12:28;4.03;;;1.70;;
32445;SDS011;18899;50.748;7.102;2022-10-16T02:14:57;2.88;;;1.85;;
32445;SDS011;18899;50.748;7.102;2022-10-16T02:17:23;3.25;;;1.38;;
32445;SDS011;18899;50.748;7.102;2022-10-16T02:19:49;3.05;;;1.50;;
32445;SDS011;18899;50.748;7.102;2022-10-16T02:22:22;5.63;;;1.75;;
32445;SDS011;18899;50.748;7.102;2022-10-16T02:24:54;4.43;;;1.40;;
32445;SDS011;18899;50.748;7.102;2022-10-16T02:29:51;4.35;;;1.42;;
32445;SDS011;18899;50.748;7.102;2022-10-16T02:32:24;2.25;;;1.40;;
32445;SDS011;18899;50.748;7.102;2022-10-16T02:34:52;2.00;;;1.20;;
32445;SDS011;18899;50.748;7.102;2022-10-16T02:37:18;3.08;;;1.10;;
32445;SDS011;18899;50.748;7.102;2022-10-16T02:39:44;2.80;;;1.30;;
32445;SDS011;18899;50.748;7.102;2022-10-16T02:42:11;2.70;;;2.05;;
32445;SDS011;18899;50.748;7.102;2022-10-16T02:44:40;1.77;;;1.30;;
32445;SDS011;18899;50.748;7.102;2022-10-16T02:47:05;1.50;;;1.10;;
32445;SDS011;18899;50.748;7.102;2022-10-16T02:49:31;5.72;;;1.38;;
32445;SDS011;18899;50.748;7.102;2022-10-16T02:51:56;2.53;;;1.33;;
32445;SDS011;18899;50.748;7.102;2022-10-16T02:54:22;2.00;;;1.17;;
32445;SDS011;18899;50.748;7.102;2022-10-16T02:56:48;1.50;;;0.88;;
32445;SDS011;18899;50.748;7.102;2022-10-16T02:59:14;1.75;;;0.98;;
32445;SDS011;18899;50.748;7.102;2022-10-16T03:01:40;1.70;;;1.02;;
32445;SDS011;18899;50.748;7.102;2022-10-16T03:04:06;1.52;;;1.10;;
32445;SDS011;18899;50.748;7.102;2022-10-16T03:06:32;3.15;;;1.20;;
32445;SDS011;18899;50.748;7.102;2022-10-16T03:08:57;1.73;;;0.80;;
32445;SDS011;18899;50.748;7.102;2022-10-16T03:11:23;1.80;;;1.23;;
32445;SDS011;18899;50.748;7.102;2022-10-16T03:13:48;2.83;;;1.13;;
32445;SDS011;18899;50.748;7.102;2022-10-16T03:16:14;1.60;;;0.80;;
32445;SDS011;18899;50.748;7.102;2022-10-16T03:18:39;1.08;;;0.80;;
32445;SDS011;18899;50.748;7.102;2022-10-16T03:21:05;1.80;;;0.90;;
32445;SDS011;18899;50.748;7.102;2022-10-16T03:23:31;1.20;;;0.80;;
32445;SDS011;18899;50.748;7.102;2022-10-16T03:25:56;2.35;;;0.90;;
32445;SDS011;18899;50.748;7.102;2022-10-16T03:28:22;1.10;;;0.88;;
32445;SDS011;18899;50.748;7.102;2022-10-16T03:30:47;4.10;;;0.90;;
32445;SDS011;18899;50.748;7.102;2022-10-16T03:33:13;4.38;;;1.13;;
32445;SDS011;18899;50.748;7.102;2022-10-16T03:35:38;3.45;;;1.15;;
32445;SDS011;18899;50.748;7.102;2022-10-16T03:38:04;2.13;;;1.27;;
32445;SDS011;18899;50.748;7.102;2022-10-16T03:40:29;8.32;;;1.00;;
32445;SDS011;18899;50.748;7.102;2022-10-16T03:42:57;1.10;;;0.80;;
32445;SDS011;18899;50.748;7.102;2022-10-16T03:45:23;2.47;;;0.70;;
32445;SDS011;18899;50.748;7.102;2022-10-16T03:47:49;4.15;;;1.30;;
32445;SDS011;18899;50.748;7.102;2022-10-16T03:50:14;2.67;;;0.98;;
32445;SDS011;18899;50.748;7.102;2022-10-16T03:52:40;2.05;;;0.80;;
32445;SDS011;18899;50.748;7.102;2022-10-16T03:55:05;2.78;;;1.02;;
32445;SDS011;18899;50.748;7.102;2022-10-16T03:57:31;1.30;;;0.82;;
32445;SDS011;18899;50.748;7.102;2022-10-16T03:59:57;1.10;;;0.80;;
32445;SDS011;18899;50.748;7.102;2022-10-16T04:02:22;1.50;;;0.90;;
32445;SDS011;18899;50.748;7.102;2022-10-16T04:04:48;1.30;;;0.88;;
32445;SDS011;18899;50.748;7.102;2022-10-16T04:07:14;3.03;;;0.90;;
32445;SDS011;18899;50.748;7.102;2022-10-16T04:09:39;1.50;;;0.90;;
32445;SDS011;18899;50.748;7.102;2022-10-16T04:12:05;5.43;;;0.77;;
32445;SDS011;18899;50.748;7.102;2022-10-16T04:14:30;2.30;;;0.90;;
32445;SDS011;18899;50.748;7.102;2022-10-16T04:16:56;3.17;;;0.80;;
32445;SDS011;18899;50.748;7.102;2022-10-16T04:19:21;2.13;;;1.10;;
32445;SDS011;18899;50.748;7.102;2022-10-16T04:21:47;1.50;;;0.65;;
32445;SDS011;18899;50.748;7.102;2022-10-16T04:24:12;1.13;;;0.70;;
32445;SDS011;18899;50.748;7.102;2022-10-16T04:26:38;0.82;;;0.70;;
32445;SDS011;18899;50.748;7.102;2022-10-16T04:29:03;2.72;;;0.80;;
32445;SDS011;18899;50.748;7.102;2022-10-16T04:31:29;0.90;;;0.60;;
32445;SDS011;18899;50.748;7.102;2022-10-16T04:33:55;3.15;;;1.00;;
32445;SDS011;18899;50.748;7.102;2022-10-16T04:36:20;4.00;;;1.20;;
32445;SDS011;18899;50.748;7.102;2022-10-16T04:38:46;1.30;;;0.90;;
32445;SDS011;18899;50.748;7.102;2022-10-16T04:41:11;4.10;;;1.00;;
32445;SDS011;18899;50.748;7.102;2022-10-16T04:43:37;21.50;;;2.60;;
32445;SDS011;18899;50.748;7.102;2022-10-16T04:46:03;1.83;;;0.90;;
32445;SDS011;18899;50.748;7.102;2022-10-16T04:48:29;2.55;;;0.75;;
32445;SDS011;18899;50.748;7.102;2022-10-16T04:50:55;2.20;;;0.88;;
32445;SDS011;18899;50.748;7.102;2022-10-16T04:53:21;1.20;;;0.60;;
32445;SDS011;18899;50.748;7.102;2022-10-16T04:55:46;3.03;;;0.90;;
32445;SDS011;18899;50.748;7.102;2022-10-16T04:58:12;1.95;;;0.70;;
32445;SDS011;18899;50.748;7.102;2022-10-16T05:00:38;1.20;;;0.90;;
32445;SDS011;18899;50.748;7.102;2022-10-16T05:03:04;2.25;;;1.00;;
32445;SDS011;18899;50.748;7.102;2022-10-16T05:05:32;1.45;;;0.88;;
32445;SDS011;18899;50.748;7.102;2022-10-16T05:07:58;3.00;;;0.82;;
32445;SDS011;18899;50.748;7.102;2022-10-16T05:10:24;2.75;;;0.60;;
32445;SDS011;18899;50.748;7.102;2022-10-16T05:12:49;1.13;;;0.80;;
32445;SDS011;18899;50.748;7.102;2022-10-16T05:15:16;5.68;;;0.90;;
32445;SDS011;18899;50.748;7.102;2022-10-16T05:17:42;1.65;;;0.70;;
32445;SDS011;18899;50.748;7.102;2022-10-16T05:20:07;0.73;;;0.50;;
32445;SDS011;18899;50.748;7.102;2022-10-16T05:22:33;2.22;;;0.80;;
32445;SDS011;18899;50.748;7.102;2022-10-16T05:24:59;1.48;;;0.80;;
32445;SDS011;18899;50.748;7.102;2022-10-16T05:27:24;0.88;;;0.75;;
32445;SDS011;18899;50.748;7.102;2022-10-16T05:29:50;1.33;;;0.82;;
32445;SDS011;18899;50.748;7.102;2022-10-16T05:32:16;4.05;;;1.13;;
32445;SDS011;18899;50.748;7.102;2022-10-16T05:34:42;3.55;;;0.80;;
32445;SDS011;18899;50.748;7.102;2022-10-16T05:37:09;1.63;;;0.90;;
32445;SDS011;18899;50.748;7.102;2022-10-16T05:39:36;2.20;;;0.65;;
32445;SDS011;18899;50.748;7.102;2022-10-16T05:42:02;2.05;;;0.70;;
32445;SDS011;18899;50.748;7.102;2022-10-16T05:44:27;0.88;;;0.73;;
32445;SDS011;18899;50.748;7.102;2022-10-16T05:46:53;0.80;;;0.60;;
32445;SDS011;18899;50.748;7.102;2022-10-16T05:49:18;2.00;;;0.82;;
32445;SDS011;18899;50.748;7.102;2022-10-16T05:51:44;0.90;;;0.70;;
32445;SDS011;18899;50.748;7.102;2022-10-16T05:54:09;1.50;;;0.90;;
32445;SDS011;18899;50.748;7.102;2022-10-16T05:56:35;0.88;;;0.73;;
32445;SDS011;18899;50.748;7.102;2022-10-16T05:59:00;1.38;;;0.98;;
32445;SDS011;18899;50.748;7.102;2022-10-16T06:01:27;1.13;;;0.88;;
32445;SDS011;18899;50.748;7.102;2022-10-16T06:03:53;3.42;;;1.00;;
32445;SDS011;18899;50.748;7.102;2022-10-16T06:06:19;1.73;;;1.20;;
32445;SDS011;18899;50.748;7.102;2022-10-16T06:08:47;2.28;;;1.13;;
32445;SDS011;18899;50.748;7.102;2022-10-16T06:11:17;4.10;;;1.40;;
32445;SDS011;18899;50.748;7.102;2022-10-16T06:13:44;2.55;;;1.25;;
32445;SDS011;18899;50.748;7.102;2022-10-16T06:16:11;1.20;;;0.82;;
32445;SDS011;18899;50.748;7.102;2022-10-16T06:18:37;2.03;;;1.02;;
32445;SDS011;18899;50.748;7.102;2022-10-16T06:21:13;1.48;;;1.27;;
32445;SDS011;18899;50.748;7.102;2022-10-16T06:23:41;4.45;;;1.45;;
32445;SDS011;18899;50.748;7.102;2022-10-16T06:26:08;2.55;;;1.45;;
32445;SDS011;18899;50.748;7.102;2022-10-16T06:28:35;2.47;;;1.33;;
32445;SDS011;18899;50.748;7.102;2022-10-16T06:31:02;2.63;;;1.10;;
32445;SDS011;18899;50.748;7.102;2022-10-16T06:33:28;1.98;;;1.13;;
32445;SDS011;18899;50.748;7.102;2022-10-16T06:35:59;7.05;;;1.35;;
32445;SDS011;18899;50.748;7.102;2022-10-16T06:38:27;2.83;;;1.10;;
32445;SDS011;18899;50.748;7.102;2022-10-16T06:40:53;1.88;;;1.17;;
32445;SDS011;18899;50.748;7.102;2022-10-16T06:43:18;2.55;;;1.30;;
32445;SDS011;18899;50.748;7.102;2022-10-16T06:45:49;2.13;;;1.10;;
32445;SDS011;18899;50.748;7.102;2022-10-16T06:48:22;2.28;;;1.20;;
32445;SDS011;18899;50.748;7.102;2022-10-16T06:53:27;3.97;;;1.50;;
32445;SDS011;18899;50.748;7.102;2022-10-16T06:55:54;2.20;;;1.20;;
32445;SDS011;18899;50.748;7.102;2022-10-16T06:58:20;2.58;;;1.20;;
32445;SDS011;18899;50.748;7.102;2022-10-16T07:00:45;2.55;;;1.20;;
32445;SDS011;18899;50.748;7.102;2022-10-16T07:03:11;1.60;;;1.00;;
32445;SDS011;18899;50.748;7.102;2022-10-16T07:05:37;2.90;;;1.23;;
32445;SDS011;18899;50.748;7.102;2022-10-16T07:08:04;3.63;;;1.10;;
32445;SDS011;18899;50.748;7.102;2022-10-16T07:10:30;3.03;;;1.05;;
32445;SDS011;18899;50.748;7.102;2022-10-16T07:12:56;3.10;;;1.00;;
32445;SDS011;18899;50.748;7.102;2022-10-16T07:15:22;2.00;;;0.93;;
32445;SDS011;18899;50.748;7.102;2022-10-16T07:17:47;1.60;;;0.90;;
32445;SDS011;18899;50.748;7.102;2022-10-16T07:20:13;3.30;;;1.33;;
32445;SDS011;18899;50.748;7.102;2022-10-16T07:22:38;2.88;;;1.08;;
32445;SDS011;18899;50.748;7.102;2022-10-16T07:25:04;2.28;;;1.27;;
32445;SDS011;18899;50.748;7.102;2022-10-16T07:27:30;1.95;;;0.90;;
32445;SDS011;18899;50.748;7.102;2022-10-16T07:29:55;2.30;;;1.00;;
32445;SDS011;18899;50.748;7.102;2022-10-16T07:32:21;3.80;;;1.10;;
32445;SDS011;18899;50.748;7.102;2022-10-16T07:34:46;1.92;;;0.90;;
32445;SDS011;18899;50.748;7.102;2022-10-16T07:37:12;2.13;;;0.98;;
32445;SDS011;18899;50.748;7.102;2022-10-16T07:39:37;1.25;;;0.95;;
32445;SDS011;18899;50.748;7.102;2022-10-16T07:42:03;1.13;;;0.90;;
32445;SDS011;18899;50.748;7.102;2022-10-16T07:44:28;2.13;;;0.93;;
32445;SDS011;18899;50.748;7.102;2022-10-16T07:46:54;3.75;;;0.98;;
32445;SDS011;18899;50.748;7.102;2022-10-16T07:49:19;2.03;;;1.05;;
32445;SDS011;18899;50.748;7.102;2022-10-16T07:51:45;2.90;;;0.82;;
32445;SDS011;18899;50.748;7.102;2022-10-16T07:54:10;1.42;;;0.90;;
32445;SDS011;18899;50.748;7.102;2022-10-16T07:56:36;2.53;;;0.90;;
32445;SDS011;18899;50.748;7.102;2022-10-16T07:59:02;2.70;;;1.92;;
32445;SDS011;18899;50.748;7.102;2022-10-16T08:01:27;1.80;;;1.13;;
32445;SDS011;18899;50.748;7.102;2022-10-16T08:03:53;1.77;;;1.23;;
32445;SDS011;18899;50.748;7.102;2022-10-16T08:06:19;1.05;;;0.70;;
32445;SDS011;18899;50.748;7.102;2022-10-16T08:08:45;2.45;;;0.80;;
32445;SDS011;18899;50.748;7.102;2022-10-16T08:11:12;3.83;;;0.70;;
32445;SDS011;18899;50.748;7.102;2022-10-16T08:13:39;1.13;;;0.90;;
32445;SDS011;18899;50.748;7.102;2022-10-16T08:16:04;5.00;;;0.82;;
32445;SDS011;18899;50.748;7.102;2022-10-16T08:18:32;2.42;;;0.98;;
32445;SDS011;18899;50.748;7.102;2022-10-16T08:20:59;1.38;;;0.90;;
32445;SDS011;18899;50.748;7.102;2022-10-16T08:23:25;1.75;;;0.82;;
32445;SDS011;18899;50.748;7.102;2022-10-16T08:25:55;2.80;;;0.93;;
32445;SDS011;18899;50.748;7.102;2022-10-16T08:28:26;2.00;;;1.02;;
32445;SDS011;18899;50.748;7.102;2022-10-16T08:30:51;3.25;;;0.82;;
32445;SDS011;18899;50.748;7.102;2022-10-16T08:33:17;1.17;;;0.60;;
32445;SDS011;18899;50.748;7.102;2022-10-16T08:35:43;6.68;;;0.88;;
32445;SDS011;18899;50.748;7.102;2022-10-16T08:38:15;1.63;;;0.70;;
32445;SDS011;18899;50.748;7.102;2022-10-16T08:40:41;0.95;;;0.80;;
32445;SDS011;18899;50.748;7.102;2022-10-16T08:48:44;1.33;;;0.70;;
32445;SDS011;18899;50.748;7.102;2022-10-16T08:51:24;1.52;;;0.60;;
32445;SDS011;18899;50.748;7.102;2022-10-16T08:54:06;1.88;;;0.80;;
32445;SDS011;18899;50.748;7.102;2022-10-16T08:56:46;1.13;;;0.70;;
32445;SDS011;18899;50.748;7.102;2022-10-16T08:59:11;1.20;;;0.73;;
32445;SDS011;18899;50.748;7.102;2022-10-16T09:01:41;2.92;;;0.70;;
32445;SDS011;18899;50.748;7.102;2022-10-16T09:07:32;2.88;;;0.77;;
32445;SDS011;18899;50.748;7.102;2022-10-16T09:10:10;1.92;;;0.60;;
32445;SDS011;18899;50.748;7.102;2022-10-16T09:12:51;0.82;;;0.50;;
32445;SDS011;18899;50.748;7.102;2022-10-16T09:15:34;2.20;;;0.60;;
32445;SDS011;18899;50.748;7.102;2022-10-16T09:18:16;2.70;;;0.80;;
32445;SDS011;18899;50.748;7.102;2022-10-16T09:23:39;1.50;;;0.43;;
32445;SDS011;18899;50.748;7.102;2022-10-16T09:26:05;2.50;;;0.60;;
32445;SDS011;18899;50.748;7.102;2022-10-16T09:28:37;1.23;;;0.52;;
32445;SDS011;18899;50.748;7.102;2022-10-16T09:31:03;1.42;;;0.60;;
32445;SDS011;18899;50.748;7.102;2022-10-16T09:33:30;0.47;;;0.20;;
32445;SDS011;18899;50.748;7.102;2022-10-16T09:36:00;1.17;;;0.30;;
32445;SDS011;18899;50.748;7.102;2022-10-16T09:38:31;1.75;;;1.13;;
32445;SDS011;18899;50.748;7.102;2022-10-16T09:41:00;4.15;;;0.40;;
32445;SDS011;18899;50.748;7.102;2022-10-16T09:46:21;3.50;;;0.35;;
32445;SDS011;18899;50.748;7.102;2022-10-16T09:48:50;0.55;;;0.30;;
32445;SDS011;18899;50.748;7.102;2022-10-16T09:51:28;1.45;;;0.35;;
32445;SDS011;18899;50.748;7.102;2022-10-16T09:56:33;0.68;;;0.30;;
32445;SDS011;18899;50.748;7.102;2022-10-16T09:59:13;0.45;;;0.28;;
32445;SDS011;18899;50.748;7.102;2022-10-16T10:01:41;0.60;;;0.20;;
32445;SDS011;18899;50.748;7.102;2022-10-16T10:04:10;0.60;;;0.20;;
32445;SDS011;18899;50.748;7.102;2022-10-16T10:06:44;1.27;;;0.20;;
32445;SDS011;18899;50.748;7.102;2022-10-16T10:09:21;0.30;;;0.17;;
32445;SDS011;18899;50.748;7.102;2022-10-16T10:12:03;2.10;;;0.50;;
32445;SDS011;18899;50.748;7.102;2022-10-16T10:14:38;0.63;;;0.28;;
32445;SDS011;18899;50.748;7.102;2022-10-16T10:19:46;0.93;;;0.30;;
32445;SDS011;18899;50.748;7.102;2022-10-16T10:24:56;1.55;;;0.30;;
32445;SDS011;18899;50.748;7.102;2022-10-16T10:27:30;2.58;;;1.30;;
32445;SDS011;18899;50.748;7.102;2022-10-16T10:36:28;4.47;;;0.30;;
32445;SDS011;18899;50.748;7.102;2022-10-16T10:53:10;1.48;;;0.28;;
32445;SDS011;18899;50.748;7.102;2022-10-16T10:55:52;0.40;;;0.30;;
32445;SDS011;18899;50.748;7.102;2022-10-16T11:06:59;1.73;;;0.40;;
32445;SDS011;18899;50.748;7.102;2022-10-16T11:09:34;1.35;;;0.20;;
32445;SDS011;18899;50.748;7.102;2022-10-16T11:14:43;2.92;;;0.38;;
32445;SDS011;18899;50.748;7.102;2022-10-16T11:17:25;1.02;;;0.20;;
32445;SDS011;18899;50.748;7.102;2022-10-16T11:22:44;0.90;;;0.30;;
32445;SDS011;18899;50.748;7.102;2022-10-16T11:30:19;0.60;;;0.20;;
32445;SDS011;18899;50.748;7.102;2022-10-16T11:32:56;1.15;;;0.30;;
32445;SDS011;18899;50.748;7.102;2022-10-16T11:46:57;2.53;;;0.35;;
32445;SDS011;18899;50.748;7.102;2022-10-16T11:49:44;0.70;;;0.52;;
32445;SDS011;18899;50.748;7.102;2022-10-16T11:52:15;0.50;;;0.30;;
32445;SDS011;18899;50.748;7.102;2022-10-16T11:55:04;0.50;;;0.30;;
32445;SDS011;18899;50.748;7.102;2022-10-16T11:57:48;2.58;;;0.20;;
32445;SDS011;18899;50.748;7.102;2022-10-16T12:00:21;0.43;;;0.30;;
32445;SDS011;18899;50.748;7.102;2022-10-16T12:03:03;0.65;;;0.30;;
32445;SDS011;18899;50.748;7.102;2022-10-16T12:08:12;1.35;;;0.20;;
32445;SDS011;18899;50.748;7.102;2022-10-16T12:10:41;1.13;;;0.30;;
32445;SDS011;18899;50.748;7.102;2022-10-16T12:18:37;0.70;;;0.32;;
32445;SDS011;18899;50.748;7.102;2022-10-16T12:21:04;0.13;;;0.13;;
32445;SDS011;18899;50.748;7.102;2022-10-16T12:23:38;0.52;;;0.40;;
32445;SDS011;18899;50.748;7.102;2022-10-16T12:26:12;1.05;;;0.30;;
32445;SDS011;18899;50.748;7.102;2022-10-16T12:28:38;0.47;;;0.25;;
32445;SDS011;18899;50.748;7.102;2022-10-16T12:31:06;0.20;;;0.13;;
32445;SDS011;18899;50.748;7.102;2022-10-16T12:33:34;1.90;;;0.30;;
32445;SDS011;18899;50.748;7.102;2022-10-16T12:36:28;0.82;;;0.30;;
32445;SDS011;18899;50.748;7.102;2022-10-16T12:38:55;0.77;;;0.30;;
32445;SDS011;18899;50.748;7.102;2022-10-16T12:41:25;1.55;;;0.55;;
32445;SDS011;18899;50.748;7.102;2022-10-16T12:43:58;7.32;;;0.40;;
32445;SDS011;18899;50.748;7.102;2022-10-16T12:49:05;0.88;;;0.30;;
32445;SDS011;18899;50.748;7.102;2022-10-16T12:54:04;0.75;;;0.30;;
32445;SDS011;18899;50.748;7.102;2022-10-16T13:00:45;0.93;;;0.38;;
32445;SDS011;18899;50.748;7.102;2022-10-16T13:11:21;0.55;;;0.30;;
32445;SDS011;18899;50.748;7.102;2022-10-16T13:16:54;1.48;;;0.30;;
32445;SDS011;18899;50.748;7.102;2022-10-16T13:22:30;1.35;;;0.30;;
32445;SDS011;18899;50.748;7.102;2022-10-16T13:25:28;1.80;;;0.30;;
32445;SDS011;18899;50.748;7.102;2022-10-16T13:28:05;0.90;;;0.30;;
32445;SDS011;18899;50.748;7.102;2022-10-16T13:36:17;1.50;;;0.40;;
32445;SDS011;18899;50.748;7.102;2022-10-16T13:38:48;0.70;;;0.40;;
32445;SDS011;18899;50.748;7.102;2022-10-16T13:41:25;0.82;;;0.45;;
32445;SDS011;18899;50.748;7.102;2022-10-16T13:43:50;2.90;;;0.75;;
32445;SDS011;18899;50.748;7.102;2022-10-16T13:46:21;1.20;;;0.68;;
32445;SDS011;18899;50.748;7.102;2022-10-16T13:49:04;2.00;;;0.80;;
32445;SDS011;18899;50.748;7.102;2022-10-16T13:51:36;0.88;;;0.43;;
32445;SDS011;18899;50.748;7.102;2022-10-16T13:54:01;0.68;;;0.30;;
32445;SDS011;18899;50.748;7.102;2022-10-16T13:56:28;1.02;;;0.38;;
32445;SDS011;18899;50.748;7.102;2022-10-16T13:59:05;1.27;;;0.20;;
32445;SDS011;18899;50.748;7.102;2022-10-16T14:01:46;0.17;;;0.17;;
32445;SDS011;18899;50.748;7.102;2022-10-16T14:04:12;0.80;;;0.40;;
32445;SDS011;18899;50.748;7.102;2022-10-16T14:06:46;0.52;;;0.30;;
32445;SDS011;18899;50.748;7.102;2022-10-16T14:09:20;0.82;;;0.30;;
32445;SDS011;18899;50.748;7.102;2022-10-16T14:11:50;0.85;;;0.50;;
32445;SDS011;18899;50.748;7.102;2022-10-16T14:14:19;0.45;;;0.20;;
32445;SDS011;18899;50.748;7.102;2022-10-16T14:16:45;0.47;;;0.30;;
32445;SDS011;18899;50.748;7.102;2022-10-16T14:21:48;3.47;;;0.40;;
32445;SDS011;18899;50.748;7.102;2022-10-16T14:24:25;0.30;;;0.20;;
32445;SDS011;18899;50.748;7.102;2022-10-16T14:26:51;0.68;;;0.50;;
32445;SDS011;18899;50.748;7.102;2022-10-16T14:29:20;1.10;;;0.40;;
32445;SDS011;18899;50.748;7.102;2022-10-16T14:34:25;2.15;;;0.60;;
32445;SDS011;18899;50.748;7.102;2022-10-16T14:36:53;0.77;;;0.28;;
32445;SDS011;18899;50.748;7.102;2022-10-16T14:39:20;0.32;;;0.22;;
32445;SDS011;18899;50.748;7.102;2022-10-16T14:41:49;0.47;;;0.40;;
32445;SDS011;18899;50.748;7.102;2022-10-16T14:44:17;1.85;;;0.43;;
32445;SDS011;18899;50.748;7.102;2022-10-16T14:46:44;1.02;;;0.50;;
32445;SDS011;18899;50.748;7.102;2022-10-16T14:51:36;1.00;;;0.40;;
32445;SDS011;18899;50.748;7.102;2022-10-16T14:54:03;0.63;;;0.30;;
32445;SDS011;18899;50.748;7.102;2022-10-16T14:56:29;1.15;;;0.45;;
32445;SDS011;18899;50.748;7.102;2022-10-16T14:58:58;4.00;;;0.40;;
32445;SDS011;18899;50.748;7.102;2022-10-16T15:01:25;1.27;;;0.38;;
32445;SDS011;18899;50.748;7.102;2022-10-16T15:03:51;3.22;;;0.63;;
32445;SDS011;18899;50.748;7.102;2022-10-16T15:06:18;0.90;;;0.45;;
32445;SDS011;18899;50.748;7.102;2022-10-16T15:08:44;1.13;;;0.40;;
32445;SDS011;18899;50.748;7.102;2022-10-16T15:11:11;1.90;;;0.50;;
32445;SDS011;18899;50.748;7.102;2022-10-16T15:13:39;0.82;;;0.55;;
32445;SDS011;18899;50.748;7.102;2022-10-16T15:16:04;0.95;;;0.55;;
32445;SDS011;18899;50.748;7.102;2022-10-16T15:18:32;6.15;;;0.77;;
32445;SDS011;18899;50.748;7.102;2022-10-16T15:20:57;1.02;;;0.47;;
32445;SDS011;18899;50.748;7.102;2022-10-16T15:23:23;0.73;;;0.30;;
32445;SDS011;18899;50.748;7.102;2022-10-16T15:25:50;1.90;;;0.40;;
32445;SDS011;18899;50.748;7.102;2022-10-16T15:28:17;0.93;;;0.40;;
32445;SDS011;18899;50.748;7.102;2022-10-16T15:30:44;1.92;;;0.60;;
32445;SDS011;18899;50.748;7.102;2022-10-16T15:33:12;1.05;;;0.40;;
32445;SDS011;18899;50.748;7.102;2022-10-16T15:35:40;1.98;;;0.60;;
32445;SDS011;18899;50.748;7.102;2022-10-16T15:38:06;2.72;;;0.50;;
32445;SDS011;18899;50.748;7.102;2022-10-16T15:40:31;1.35;;;0.68;;
32445;SDS011;18899;50.748;7.102;2022-10-16T15:42:57;0.55;;;0.43;;
32445;SDS011;18899;50.748;7.102;2022-10-16T15:45:22;1.05;;;0.50;;
32445;SDS011;18899;50.748;7.102;2022-10-16T15:47:48;1.30;;;0.47;;
32445;SDS011;18899;50.748;7.102;2022-10-16T15:50:14;3.40;;;0.50;;
32445;SDS011;18899;50.748;7.102;2022-10-16T15:52:40;1.27;;;0.60;;
32445;SDS011;18899;50.748;7.102;2022-10-16T15:55:07;1.00;;;0.52;;
32445;SDS011;18899;50.748;7.102;2022-10-16T15:57:34;3.58;;;0.50;;
32445;SDS011;18899;50.748;7.102;2022-10-16T16:00:03;2.22;;;0.70;;
32445;SDS011;18899;50.748;7.102;2022-10-16T16:02:32;1.10;;;0.60;;
32445;SDS011;18899;50.748;7.102;2022-10-16T16:04:58;4.03;;;0.70;;
32445;SDS011;18899;50.748;7.102;2022-10-16T16:07:23;1.20;;;0.60;;
32445;SDS011;18899;50.748;7.102;2022-10-16T16:09:49;2.88;;;1.05;;
32445;SDS011;18899;50.748;7.102;2022-10-16T16:12:15;2.15;;;0.70;;
32445;SDS011;18899;50.748;7.102;2022-10-16T16:14:40;1.60;;;0.80;;
32445;SDS011;18899;50.748;7.102;2022-10-16T16:17:06;1.55;;;0.75;;
32445;SDS011;18899;50.748;7.102;2022-10-16T16:19:32;3.70;;;0.85;;
32445;SDS011;18899;50.748;7.102;2022-10-16T16:21:58;1.45;;;0.82;;
32445;SDS011;18899;50.748;7.102;2022-10-16T16:24:23;2.03;;;0.80;;
32445;SDS011;18899;50.748;7.102;2022-10-16T16:26:49;1.00;;;0.63;;
32445;SDS011;18899;50.748;7.102;2022-10-16T16:29:15;1.88;;;0.82;;
32445;SDS011;18899;50.748;7.102;2022-10-16T16:31:41;1.67;;;0.70;;
32445;SDS011;18899;50.748;7.102;2022-10-16T16:34:07;1.67;;;0.90;;
32445;SDS011;18899;50.748;7.102;2022-10-16T16:36:33;3.13;;;1.00;;
32445;SDS011;18899;50.748;7.102;2022-10-16T16:38:59;4.53;;;0.90;;
32445;SDS011;18899;50.748;7.102;2022-10-16T16:41:26;1.58;;;0.80;;
32445;SDS011;18899;50.748;7.102;2022-10-16T16:43:54;1.98;;;0.70;;
32445;SDS011;18899;50.748;7.102;2022-10-16T16:46:20;1.52;;;0.75;;
32445;SDS011;18899;50.748;7.102;2022-10-16T16:48:47;4.03;;;0.70;;
32445;SDS011;18899;50.748;7.102;2022-10-16T16:51:15;2.20;;;0.77;;
32445;SDS011;18899;50.748;7.102;2022-10-16T16:53:44;3.28;;;0.98;;
32445;SDS011;18899;50.748;7.102;2022-10-16T16:56:12;1.30;;;0.80;;
32445;SDS011;18899;50.748;7.102;2022-10-16T16:58:38;1.58;;;0.77;;
32445;SDS011;18899;50.748;7.102;2022-10-16T17:01:04;4.45;;;0.95;;
32445;SDS011;18899;50.748;7.102;2022-10-16T17:03:30;1.20;;;0.77;;
32445;SDS011;18899;50.748;7.102;2022-10-16T17:06:01;1.40;;;0.80;;
32445;SDS011;18899;50.748;7.102;2022-10-16T17:08:28;5.88;;;0.80;;
32445;SDS011;18899;50.748;7.102;2022-10-16T17:10:55;4.15;;;0.80;;